Time;durP1;ratioP1;P1;durP2;ratioP2;P2;SDS_P1;SDS_P2;PMS_P1;PMS_P2;Temp;Humidity;BMP_temperature;BMP_pressure;BME280_temperature;BME280_humidity;BME280_pressure;Samples;Min_cycle;Max_cycle;Signal;HPM_P1;HPM_P2
2023/08/30 00:00:38;;;;;;;7.38;5.00;;;;;;;;;;5038398;28;20025;-81
2023/08/30 00:03:05;;;;;;;7.50;4.15;;;;;;;;;;5037048;28;20033;-81
2023/08/30 00:05:32;;;;;;;10.85;4.20;;;;;;;;;;5036393;28;20021;-84
2023/08/30 00:07:58;;;;;;;6.45;3.92;;;;;;;;;;5041562;28;20029;-85
2023/08/30 00:10:24;;;;;;;7.50;3.92;;;;;;;;;;5041029;28;20445;-81
2023/08/30 00:12:50;;;;;;;6.40;3.90;;;;;;;;;;5039593;28;20120;-83
2023/08/30 00:15:16;;;;;;;6.88;4.03;;;;;;;;;;5037533;28;20093;-82
2023/08/30 00:17:42;;;;;;;8.27;4.97;;;;;;;;;;5034848;28;20049;-81
2023/08/30 00:20:08;;;;;;;7.38;4.53;;;13.80;99.90;;;;;;5043481;28;20068;-83
2023/08/30 00:22:35;;;;;;;7.28;4.38;;;;;;;;;;5042532;28;20031;-81
2023/08/30 00:25:01;;;;;;;9.73;4.35;;;;;;;;;;5041993;28;20081;-81
2023/08/30 00:27:27;;;;;;;7.90;5.03;;;;;;;;;;5036739;28;20570;-81
2023/08/30 00:29:53;;;;;;;7.53;4.20;;;;;;;;;;5041814;28;20059;-82
2023/08/30 00:32:19;;;;;;;6.97;4.30;;;;;;;;;;5037707;28;20059;-82
2023/08/30 00:34:45;;;;;;;10.38;5.38;;;;;;;;;;5039963;28;20119;-82
2023/08/30 00:37:11;;;;;;;9.18;5.07;;;;;;;;;;5040602;28;20029;-82
2023/08/30 00:39:39;;;;;;;8.70;5.30;;;13.00;99.90;;;;;;5039767;28;20031;-81
2023/08/30 00:42:07;;;;;;;8.18;4.97;;;;;;;;;;5039372;28;20031;-82
2023/08/30 00:44:33;;;;;;;10.10;4.93;;;;;;;;;;5038280;28;20434;-83
2023/08/30 00:47:00;;;;;;;9.98;5.60;;;;;;;;;;5041513;28;20029;-82
2023/08/30 00:49:26;;;;;;;8.27;4.82;;;;;;;;;;5044367;28;20439;-83
2023/08/30 00:51:52;;;;;;;7.03;4.63;;;;;;;;;;5032433;28;20021;-83
2023/08/30 00:54:18;;;;;;;8.60;5.32;;;;;;;;;;5029710;28;20037;-84
2023/08/30 00:56:44;;;;;;;10.95;6.00;;;;;;;;;;5019824;28;20064;-83
2023/08/30 00:59:10;;;;;;;9.77;5.18;;;;;;;;;;5042839;28;20061;-83
2023/08/30 01:01:38;;;;;;;10.23;5.25;;;;;;;;;;5037107;28;20517;-84
2023/08/30 01:04:06;;;;;;;6.68;4.30;;;;;;;;;;5035108;28;20499;-83
2023/08/30 01:06:32;;;;;;;9.30;5.03;;;;;;;;;;5044713;28;20059;-83
2023/08/30 01:08:58;;;;;;;8.18;4.10;;;;;;;;;;5050779;28;20017;-83
2023/08/30 01:11:36;;;;;;;8.45;4.93;;;;;;;;;;5055504;28;20114;-81
2023/08/30 01:14:11;;;;;;;11.38;6.03;;;;;;;;;;5044622;28;20039;-84
2023/08/30 01:16:37;;;;;;;8.32;5.18;;;;;;;;;;5044465;28;20561;-82
2023/08/30 01:19:10;;;;;;;10.05;6.20;;;;;;;;;;5042883;28;20025;-84
2023/08/30 01:21:49;;;;;;;9.73;6.07;;;;;;;;;;5039111;28;20041;-83
2023/08/30 01:24:22;;;;;;;9.25;5.50;;;;;;;;;;5034232;28;20036;-83
2023/08/30 01:27:03;;;;;;;7.72;5.13;;;;;;;;;;5036709;28;20057;-82
2023/08/30 01:29:31;;;;;;;8.85;5.43;;;13.50;99.90;;;;;;5047270;28;20514;-83
2023/08/30 01:31:57;;;;;;;7.38;4.15;;;;;;;;;;5052967;28;20037;-83
2023/08/30 01:34:23;;;;;;;8.80;5.95;;;;;;;;;;5048526;28;20037;-82
2023/08/30 01:36:49;;;;;;;8.68;5.47;;;12.90;99.90;;;;;;5045178;28;20032;-82
2023/08/30 01:39:16;;;;;;;10.52;5.50;;;;;;;;;;5045123;28;20029;-83
2023/08/30 01:41:42;;;;;;;8.52;5.05;;;;;;;;;;5044260;28;20052;-81
2023/08/30 01:44:08;;;;;;;9.52;5.72;;;;;;;;;;5048711;28;20029;-82
2023/08/30 01:46:35;;;;;;;9.70;5.82;;;;;;;;;;5048206;28;20021;-83
2023/08/30 01:49:02;;;;;;;9.25;5.47;;;;;;;;;;5049898;28;20782;-82
2023/08/30 01:51:28;;;;;;;8.80;5.38;;;;;;;;;;5038528;28;20104;-84
2023/08/30 01:53:54;;;;;;;9.60;5.68;;;;;;;;;;5049320;28;20403;-81
2023/08/30 01:56:20;;;;;;;10.75;6.00;;;;;;;;;;5042912;28;20455;-83
2023/08/30 01:58:46;;;;;;;14.80;7.13;;;;;;;;;;5046719;28;20017;-81
2023/08/30 02:01:12;;;;;;;8.35;5.35;;;;;;;;;;5047685;28;20538;-82
2023/08/30 02:03:38;;;;;;;8.30;5.55;;;;;;;;;;5041802;28;20442;-82
2023/08/30 02:06:09;;;;;;;11.27;5.35;;;;;;;;;;5046625;28;20025;-83
2023/08/30 02:08:42;;;;;;;10.98;5.38;;;;;;;;;;5047096;28;20069;-83
2023/08/30 02:11:08;;;;;;;;;;;;;;;;;;5047063;28;20546;-82
2023/08/30 02:13:35;;;;;;;8.20;5.40;;;;;;;;;;5046972;28;19931;-81
2023/08/30 02:16:01;;;;;;;10.82;6.40;;;;;;;;;;5048306;28;20028;-82
2023/08/30 02:18:28;;;;;;;11.15;6.82;;;;;;;;;;5041630;28;20020;-83
2023/08/30 02:20:55;;;;;;;11.13;5.97;;;12.80;99.90;;;;;;5049169;28;20031;-82
2023/08/30 02:23:23;;;;;;;8.68;5.35;;;;;;;;;;5047723;28;20021;-82
2023/08/30 02:25:49;;;;;;;9.10;5.53;;;;;;;;;;5045245;28;20108;-83
2023/08/30 02:28:15;;;;;;;12.90;6.18;;;;;;;;;;5043145;28;20111;-83
2023/08/30 02:30:41;;;;;;;23.20;5.65;;;;;;;;;;5040737;28;20025;-83
2023/08/30 02:33:07;;;;;;;14.32;5.18;;;;;;;;;;5043996;28;20040;-81
2023/08/30 02:35:33;;;;;;;10.15;5.65;;;;;;;;;;5042370;28;20029;-83
2023/08/30 02:37:59;;;;;;;12.45;5.78;;;;;;;;;;5042699;28;20055;-82
2023/08/30 02:40:25;;;;;;;11.93;5.90;;;;;;;;;;5041247;28;20108;-82
2023/08/30 02:42:51;;;;;;;11.60;6.70;;;;;;;;;;5040929;28;20115;-82
2023/08/30 02:45:17;;;;;;;24.55;7.10;;;;;;;;;;5047743;28;20124;-82
2023/08/30 02:47:45;;;;;;;23.90;8.18;;;;;;;;;;5041189;28;20056;-81
2023/08/30 02:50:11;;;;;;;10.52;6.88;;;;;;;;;;5034233;28;20119;-82
2023/08/30 02:52:37;;;;;;;13.50;7.47;;;;;;;;;;5037293;28;20460;-82
2023/08/30 02:55:03;;;;;;;12.35;6.30;;;;;;;;;;5041610;28;20147;-81
2023/08/30 02:57:30;;;;;;;11.80;7.28;;;;;;;;;;5041878;28;20029;-83
2023/08/30 02:59:56;;;;;;;10.70;6.47;;;;;;;;;;5042733;28;20017;-82
2023/08/30 03:02:22;;;;;;;10.27;5.78;;;;;;;;;;5042281;28;20025;-83
2023/08/30 03:04:48;;;;;;;11.93;7.55;;;;;;;;;;5046175;28;20035;-83
2023/08/30 03:07:14;;;;;;;10.02;5.80;;;;;;;;;;5041913;28;20059;-83
2023/08/30 03:09:40;;;;;;;11.25;6.22;;;;;;;;;;5042692;28;20089;-83
2023/08/30 03:12:06;;;;;;;9.48;5.53;;;;;;;;;;5042354;28;20025;-82
2023/08/30 03:14:32;;;;;;;10.90;6.40;;;;;;;;;;5044960;28;20029;-82
2023/08/30 03:16:58;;;;;;;10.73;5.80;;;;;;;;;;5043068;28;20079;-82
2023/08/30 03:19:24;;;;;;;10.55;5.70;;;;;;;;;;5042914;28;20665;-82
2023/08/30 03:21:50;;;;;;;11.02;6.85;;;;;;;;;;5041584;28;20029;-81
2023/08/30 03:24:17;;;;;;;10.40;6.57;;;;;;;;;;5043310;28;20051;-83
2023/08/30 03:26:43;;;;;;;10.13;5.57;;;12.40;99.90;;;;;;5046380;28;20037;-83
2023/08/30 03:29:09;;;;;;;12.68;7.05;;;;;;;;;;5041641;28;20045;-82
2023/08/30 03:31:35;;;;;;;11.82;6.60;;;12.80;99.90;;;;;;5041758;28;20064;-83
2023/08/30 03:34:01;;;;;;;11.00;6.45;;;;;;;;;;5043722;28;20067;-84
2023/08/30 03:36:27;;;;;;;9.80;5.82;;;;;;;;;;5041538;28;20026;-83
2023/08/30 03:38:53;;;;;;;12.00;6.43;;;;;;;;;;5042525;28;20129;-83
2023/08/30 03:41:19;;;;;;;14.18;6.88;;;;;;;;;;5034666;28;20087;-83
2023/08/30 03:43:45;;;;;;;11.40;6.43;;;;;;;;;;5046980;28;20025;-83
2023/08/30 03:46:11;;;;;;;14.20;6.88;;;;;;;;;;5037056;28;20033;-82
2023/08/30 03:48:37;;;;;;;12.32;6.65;;;;;;;;;;5045560;28;20025;-83
2023/08/30 03:51:03;;;;;;;11.77;6.07;;;;;;;;;;5038394;28;20075;-82
2023/08/30 03:53:32;;;;;;;11.20;5.93;;;;;;;;;;5039738;28;20033;-83
2023/08/30 03:55:59;;;;;;;11.40;6.50;;;;;;;;;;5037775;28;20037;-82
2023/08/30 03:58:25;;;;;;;11.68;6.68;;;;;;;;;;5039532;28;20041;-82
2023/08/30 04:00:51;;;;;;;13.68;6.97;;;;;;;;;;5024175;28;20032;-83
2023/08/30 04:03:17;;;;;;;12.63;6.95;;;;;;;;;;5037448;28;20029;-82
2023/08/30 04:05:43;;;;;;;13.85;7.50;;;;;;;;;;5047459;28;20025;-83
2023/08/30 04:08:09;;;;;;;13.85;7.00;;;12.90;99.90;;;;;;5037230;28;20022;-83
2023/08/30 04:10:42;;;;;;;11.60;6.18;;;13.00;99.90;;;;;;5044874;28;20040;-82
2023/08/30 04:13:09;;;;;;;12.50;7.72;;;;;;;;;;5044539;28;20029;-84
2023/08/30 04:15:35;;;;;;;9.30;6.40;;;;;;;;;;5018814;28;20034;-83
2023/08/30 04:18:02;;;;;;;12.80;7.03;;;;;;;;;;5041909;28;20037;-83
2023/08/30 04:20:28;;;;;;;11.52;7.00;;;;;;;;;;5044178;28;21002;-83
2023/08/30 04:22:56;;;;;;;10.70;6.57;;;;;;;;;;5042080;28;20045;-82
2023/08/30 04:25:22;;;;;;;10.50;6.18;;;12.70;99.90;;;;;;5041774;28;20029;-82
2023/08/30 04:27:48;;;;;;;12.77;6.82;;;;;;;;;;5029068;28;20043;-82
2023/08/30 04:30:14;;;;;;;10.75;6.40;;;;;;;;;;5024351;28;20124;-82
2023/08/30 04:32:40;;;;;;;12.98;6.82;;;;;;;;;;5038274;28;20045;-82
2023/08/30 04:35:06;;;;;;;13.13;6.07;;;;;;;;;;5022370;28;20029;-84
2023/08/30 04:37:32;;;;;;;9.50;5.75;;;;;;;;;;5036960;28;20032;-82
2023/08/30 04:39:58;;;;;;;12.55;6.35;;;;;;;;;;5036239;28;20037;-80
2023/08/30 04:42:24;;;;;;;11.55;6.50;;;12.80;99.90;;;;;;5040473;28;20022;-82
2023/08/30 04:44:51;;;;;;;11.80;6.38;;;;;;;;;;5041203;28;20090;-82
2023/08/30 04:47:17;;;;;;;10.10;6.35;;;;;;;;;;5037578;28;20048;-83
2023/08/30 04:49:43;;;;;;;16.88;7.25;;;;;;;;;;5043279;28;20489;-84
2023/08/30 04:52:09;;;;;;;11.15;5.78;;;;;;;;;;5038319;28;20117;-83
2023/08/30 04:54:35;;;;;;;11.40;6.65;;;;;;;;;;5037410;28;20578;-83
2023/08/30 04:57:01;;;;;;;13.35;6.93;;;;;;;;;;5040355;28;20029;-84
2023/08/30 04:59:27;;;;;;;10.77;6.57;;;;;;;;;;5041478;28;20033;-83
2023/08/30 05:01:52;;;;;;;13.88;6.72;;;;;;;;;;5038635;28;20037;-81
2023/08/30 05:04:18;;;;;;;10.18;5.90;;;;;;;;;;5033497;28;20040;-82
2023/08/30 05:06:44;;;;;;;8.98;5.43;;;;;;;;;;5038335;28;20034;-82
2023/08/30 05:09:10;;;;;;;13.60;5.82;;;;;;;;;;5053646;28;20097;-82
2023/08/30 05:11:36;;;;;;;12.00;6.68;;;;;;;;;;5048649;28;20021;-81
2023/08/30 05:14:02;;;;;;;12.77;7.53;;;;;;;;;;5054961;28;20052;-82
2023/08/30 05:16:28;;;;;;;18.55;8.10;;;;;;;;;;5062745;28;20024;-82
2023/08/30 05:18:54;;;;;;;16.70;8.07;;;;;;;;;;5068447;28;20025;-84
2023/08/30 05:21:20;;;;;;;11.98;6.43;;;13.00;99.90;;;;;;5063095;28;20202;-83
2023/08/30 05:23:46;;;;;;;11.90;6.60;;;;;;;;;;5053615;28;20127;-84
2023/08/30 05:26:12;;;;;;;14.05;7.55;;;;;;;;;;5043984;28;20029;-84
2023/08/30 05:28:39;;;;;;;13.25;7.10;;;;;;;;;;5050297;28;20025;-81
2023/08/30 05:31:05;;;;;;;17.88;7.50;;;;;;;;;;5057558;28;20032;-82
2023/08/30 05:33:32;;;;;;;9.95;6.30;;;;;;;;;;5059568;28;20049;-82
2023/08/30 05:35:58;;;;;;;17.55;8.05;;;12.70;99.90;;;;;;5058125;28;20029;-82
2023/08/30 05:38:24;;;;;;;11.73;6.00;;;;;;;;;;5063633;28;20021;-82
2023/08/30 05:40:50;;;;;;;14.15;7.72;;;;;;;;;;5054583;28;20032;-83
2023/08/30 05:43:16;;;;;;;14.15;7.43;;;;;;;;;;5044368;28;20025;-82
2023/08/30 05:45:42;;;;;;;13.85;7.40;;;;;;;;;;5043690;28;20033;-83
2023/08/30 05:48:08;;;;;;;16.05;6.65;;;;;;;;;;5034591;28;20446;-81
2023/08/30 05:50:34;;;;;;;13.77;7.90;;;;;;;;;;5046954;28;20033;-79
2023/08/30 05:53:00;;;;;;;11.50;7.18;;;;;;;;;;5038286;28;20134;-80
2023/08/30 05:55:26;;;;;;;15.38;7.93;;;;;;;;;;5028585;28;20124;-81
2023/08/30 05:57:52;;;;;;;12.15;7.25;;;;;;;;;;5038830;28;20033;-83
2023/08/30 06:00:18;;;;;;;12.77;6.50;;;;;;;;;;5041619;28;20559;-83
2023/08/30 06:02:44;;;;;;;11.68;7.28;;;;;;;;;;5038471;28;20060;-83
2023/08/30 06:05:10;;;;;;;12.82;7.20;;;;;;;;;;5039805;28;20034;-81
2023/08/30 06:07:36;;;;;;;14.82;7.47;;;;;;;;;;5038750;28;20821;-84
2023/08/30 06:10:02;;;;;;;11.35;7.05;;;;;;;;;;5044376;28;20032;-83
2023/08/30 06:12:28;;;;;;;11.73;6.65;;;;;;;;;;5037860;28;20200;-83
2023/08/30 06:14:54;;;;;;;13.65;7.43;;;;;;;;;;5043853;28;20039;-83
2023/08/30 06:17:20;;;;;;;10.70;6.43;;;;;;;;;;5045991;28;20626;-83
2023/08/30 06:19:46;;;;;;;13.55;7.63;;;;;;;;;;5039876;28;20029;-84
2023/08/30 06:22:13;;;;;;;10.93;6.82;;;;;;;;;;5043450;28;20345;-83
2023/08/30 06:24:39;;;;;;;11.25;7.18;;;;;;;;;;5049182;28;20024;-83
2023/08/30 06:27:05;;;;;;;10.93;6.18;;;;;;;;;;5034710;28;20021;-85
2023/08/30 06:29:31;;;;;;;14.93;7.35;;;;;;;;;;5048128;28;20078;-84
2023/08/30 06:31:58;;;;;;;14.60;7.22;;;;;;;;;;5034186;28;20025;-84
2023/08/30 06:34:23;;;;;;;14.27;7.47;;;14.10;99.90;;;;;;5040625;28;20147;-83
2023/08/30 06:36:49;;;;;;;11.73;6.75;;;;;;;;;;5045519;28;20040;-84
2023/08/30 06:39:15;;;;;;;13.05;7.30;;;;;;;;;;5046030;28;20025;-83
2023/08/30 06:41:41;;;;;;;11.32;6.57;;;;;;;;;;5040078;28;20111;-84
2023/08/30 06:44:07;;;;;;;13.30;6.70;;;;;;;;;;5031866;28;20029;-83
2023/08/30 06:46:33;;;;;;;14.40;7.95;;;;;;;;;;5036547;28;20052;-83
2023/08/30 06:48:59;;;;;;;13.20;7.55;;;;;;;;;;5032678;28;20075;-83
2023/08/30 06:51:25;;;;;;;13.32;7.68;;;;;;;;;;5042320;28;20049;-83
2023/08/30 06:53:51;;;;;;;11.80;6.78;;;;;;;;;;5035852;28;20090;-83
2023/08/30 06:56:17;;;;;;;11.95;6.60;;;;;;;;;;5037655;28;20057;-83
2023/08/30 06:58:43;;;;;;;12.73;8.02;;;;;;;;;;5038500;28;20047;-83
2023/08/30 07:01:09;;;;;;;11.75;6.80;;;;;;;;;;5035072;28;20041;-83
2023/08/30 07:03:35;;;;;;;14.43;7.20;;;;;;;;;;5023781;28;20405;-83
2023/08/30 07:06:01;;;;;;;11.88;7.22;;;;;;;;;;5025012;28;20059;-84
2023/08/30 07:08:27;;;;;;;12.50;7.20;;;;;;;;;;5027260;28;20036;-83
2023/08/30 07:10:53;;;;;;;15.88;7.70;;;;;;;;;;5030743;28;20039;-85
2023/08/30 07:13:19;;;;;;;11.02;6.65;;;;;;;;;;5029725;28;20041;-85
2023/08/30 07:15:45;;;;;;;10.88;6.43;;;;;;;;;;5040134;28;20025;-83
2023/08/30 07:18:10;;;;;;;11.85;6.68;;;;;;;;;;5040574;28;20029;-85
2023/08/30 07:20:36;;;;;;;13.48;6.80;;;;;;;;;;5023550;28;20041;-82
2023/08/30 07:23:03;;;;;;;14.55;7.55;;;;;;;;;;5034858;28;20021;-82
2023/08/30 07:25:30;;;;;;;10.07;6.25;;;;;;;;;;5041369;28;20037;-82
2023/08/30 07:27:56;;;;;;;8.63;5.22;;;;;;;;;;5035495;28;20021;-82
2023/08/30 07:30:22;;;;;;;10.00;5.72;;;;;;;;;;5046158;28;20302;-83
2023/08/30 07:32:48;;;;;;;8.95;5.38;;;;;;;;;;5040356;28;20044;-81
2023/08/30 07:35:14;;;;;;;6.53;4.35;;;;;;;;;;5040372;28;20045;-81
2023/08/30 07:37:40;;;;;;;7.15;4.32;;;;;;;;;;5044428;28;20066;-82
2023/08/30 07:40:07;;;;;;;7.65;4.22;;;;;;;;;;5051326;28;20032;-80
2023/08/30 07:42:33;;;;;;;7.78;4.93;;;;;;;;;;5048041;28;20049;-81
2023/08/30 07:44:59;;;;;;;9.38;5.28;;;;;;;;;;5046431;28;20061;-81
2023/08/30 07:47:25;;;;;;;8.18;4.55;;;;;;;;;;5042791;28;20031;-82
2023/08/30 07:49:51;;;;;;;6.75;4.22;;;;;;;;;;5043070;28;20029;-81
2023/08/30 07:52:17;;;;;;;8.82;4.00;;;;;;;;;;5033506;28;20048;-85
2023/08/30 07:54:43;;;;;;;5.82;3.88;;;;;;;;;;5039260;28;20033;-83
2023/08/30 07:57:09;;;;;;;6.10;3.95;;;;;;;;;;5045421;28;20029;-84
2023/08/30 07:59:37;;;;;;;7.82;4.88;;;17.80;99.90;;;;;;5051567;28;20037;-81
2023/08/30 08:02:06;;;;;;;7.53;4.15;;;;;;;;;;5049660;28;20030;-82
2023/08/30 08:04:32;;;;;;;9.80;3.70;;;;;;;;;;5046192;28;20068;-83
2023/08/30 08:06:58;;;;;;;6.72;3.97;;;;;;;;;;5046231;28;20044;-82
2023/08/30 08:09:24;;;;;;;10.07;4.25;;;;;;;;;;5046214;28;20152;-81
2023/08/30 08:11:50;;;;;;;6.43;3.97;;;;;;;;;;5046393;28;20040;-82
2023/08/30 08:14:16;;;;;;;5.35;3.60;;;;;;;;;;5047688;28;20033;-82
2023/08/30 08:16:42;;;;;;;7.18;4.18;;;;;;;;;;5048550;28;20029;-81
2023/08/30 08:19:08;;;;;;;5.72;3.38;;;;;;;;;;5043036;28;20033;-81
2023/08/30 08:21:34;;;;;;;7.80;3.90;;;;;;;;;;5046259;28;20072;-81
2023/08/30 08:24:00;;;;;;;5.80;3.60;;;;;;;;;;5043770;28;20033;-81
2023/08/30 08:26:26;;;;;;;6.40;3.78;;;;;;;;;;5043475;28;20029;-82
2023/08/30 08:28:54;;;;;;;5.15;3.35;;;;;;;;;;5039991;28;20565;-82
2023/08/30 08:31:19;;;;;;;8.60;3.78;;;;;;;;;;5037434;28;20107;-81
2023/08/30 08:33:46;;;;;;;3.78;2.85;;;;;;;;;;5038641;28;20332;-81
2023/08/30 08:36:12;;;;;;;5.32;3.22;;;;;;;;;;5041986;28;20082;-81
2023/08/30 08:38:38;;;;;;;6.07;3.63;;;;;;;;;;5046679;28;20029;-81
2023/08/30 08:41:08;;;;;;;4.95;3.67;;;;;;;;;;5045170;28;20021;-81
2023/08/30 08:43:36;;;;;;;4.28;3.10;;;;;;;;;;5038854;28;20041;-84
2023/08/30 08:46:03;;;;;;;5.65;3.67;;;;;;;;;;5044562;28;20026;-82
2023/08/30 08:48:30;;;;;;;8.55;3.45;;;;;;;;;;5039340;28;20087;-82
2023/08/30 08:50:56;;;;;;;4.57;3.15;;;;;;;;;;5043910;28;20038;-81
2023/08/30 08:53:23;;;;;;;4.85;2.53;;;;;;;;;;5044176;28;20112;-82
2023/08/30 08:55:49;;;;;;;5.45;2.72;;;;;;;;;;5037473;28;20472;-81
2023/08/30 08:58:15;;;;;;;8.52;3.55;;;;;;;;;;5041936;28;20555;-81
2023/08/30 09:00:44;;;;;;;3.63;2.42;;;;;;;;;;5041298;28;20033;-82
2023/08/30 09:03:11;;;;;;;3.58;2.03;;;21.20;99.90;;;;;;5041184;28;20017;-81
2023/08/30 09:05:40;;;;;;;3.90;2.35;;;21.50;99.90;;;;;;5043932;28;20055;-80
2023/08/30 09:08:07;;;;;;;4.05;2.40;;;;;;;;;;5043141;28;20075;-81
2023/08/30 09:10:33;;;;;;;5.22;2.45;;;;;;;;;;5042797;28;20025;-81
2023/08/30 09:12:59;;;;;;;2.78;1.98;;;;;;;;;;5047143;28;20033;-81
2023/08/30 09:15:36;;;;;;;4.00;2.10;;;21.30;99.90;;;;;;5049037;28;20126;-81
2023/08/30 09:18:03;;;;;;;7.10;3.38;;;;;;;;;;5059689;28;20027;-81
2023/08/30 09:20:29;;;;;;;3.42;2.13;;;;;;;;;;5054867;28;20071;-81
2023/08/30 09:22:55;;;;;;;2.55;1.67;;;;;;;;;;5046979;28;20032;-81
2023/08/30 09:25:28;;;;;;;5.82;2.55;;;20.60;99.90;;;;;;5044453;28;20036;-80
2023/08/30 09:27:59;;;;;;;8.88;2.70;;;20.90;99.90;;;;;;5056170;28;20055;-81
2023/08/30 09:30:26;;;;;;;3.60;2.42;;;;;;;;;;5052958;28;20178;-82
2023/08/30 09:32:52;;;;;;;3.60;2.47;;;;;;;;;;5053877;28;20395;-82
2023/08/30 09:35:18;;;;;;;4.05;2.03;;;;;;;;;;5044125;28;20051;-80
2023/08/30 09:37:47;;;;;;;10.18;4.40;;;20.40;99.90;;;;;;5033844;28;20065;-82
2023/08/30 09:40:19;;;;;;;6.80;4.28;;;20.80;99.90;;;;;;5052383;28;20037;-83
2023/08/30 09:42:45;;;;;;;4.33;2.73;;;;;;;;;;5049774;28;20398;-82
2023/08/30 09:45:22;;;;;;;4.45;2.42;;;20.50;99.90;;;;;;5049767;28;20039;-80
2023/08/30 09:47:48;;;;;;;6.28;3.10;;;;;;;;;;5043683;28;20064;-82
2023/08/30 09:50:17;;;;;;;3.80;2.05;;;21.30;99.90;;;;;;5041134;28;20463;-80
2023/08/30 09:52:43;;;;;;;5.95;2.45;;;;;;;;;;5050549;28;20156;-82
2023/08/30 09:55:09;;;;;;;4.10;2.58;;;;;;;;;;5053081;28;20570;-80
2023/08/30 09:57:36;;;;;;;5.15;2.50;;;21.40;99.90;;;;;;5048674;28;20591;-81
2023/08/30 10:00:04;;;;;;;5.43;2.95;;;;;;;;;;5048859;28;20036;-82
2023/08/30 10:02:33;;;;;;;8.40;3.15;;;;;;;;;;5047696;28;20024;-82
2023/08/30 10:04:59;;;;;;;3.17;2.28;;;;;;;;;;5058357;28;20025;-81
2023/08/30 10:07:26;;;;;;;3.35;2.15;;;;;;;;;;5054714;28;20055;-82
2023/08/30 10:09:53;;;;;;;3.58;2.72;;;;;;;;;;5040785;28;20029;-81
2023/08/30 10:12:22;;;;;;;4.40;2.55;;;20.50;99.90;;;;;;5056542;28;20025;-82
2023/08/30 10:14:48;;;;;;;4.85;2.65;;;;;;;;;;5054745;28;20037;-81
2023/08/30 10:17:14;;;;;;;3.53;2.45;;;;;;;;;;5044797;28;20093;-83
2023/08/30 10:19:41;;;;;;;2.40;1.58;;;;;;;;;;5051481;28;20087;-82
2023/08/30 10:22:09;;;;;;;3.72;2.00;;;;;;;;;;5036092;28;20145;-82
2023/08/30 10:24:50;;;;;;;5.28;2.28;;;20.50;99.90;;;;;;5036168;28;20034;-82
2023/08/30 10:27:17;;;;;;;5.38;2.35;;;20.70;99.90;;;;;;5042976;28;20040;-82
2023/08/30 10:29:45;;;;;;;3.28;1.83;;;21.00;99.90;;;;;;5040817;28;20024;-83
2023/08/30 10:32:11;;;;;;;3.38;2.20;;;;;;;;;;5044658;28;20029;-82
2023/08/30 10:34:37;;;;;;;3.17;1.38;;;;;;;;;;5048120;28;20545;-81
2023/08/30 10:37:04;;;;;;;4.32;2.08;;;;;;;;;;5053691;28;20055;-81
2023/08/30 10:39:37;;;;;;;4.32;2.03;;;;;;;;;;5053520;28;20032;-80
2023/08/30 10:42:03;;;;;;;;;;;;;;;;;;5050198;28;20033;-79
2023/08/30 10:44:29;;;;;;;2.13;1.30;;;;;;;;;;5049229;28;19924;-78
2023/08/30 10:46:55;;;;;;;3.35;1.77;;;;;;;;;;5048113;28;20037;-81
2023/08/30 10:49:21;;;;;;;3.50;2.10;;;;;;;;;;5050388;28;20025;-84
2023/08/30 10:51:58;;;;;;;5.97;1.58;;;21.50;99.90;;;;;;5047796;28;20079;-82
2023/08/30 10:54:24;;;;;;;4.38;1.73;;;;;;;;;;5049131;28;20041;-81
2023/08/30 10:57:01;;;;;;;2.65;1.85;;;21.00;99.90;;;;;;5051562;28;20065;-83
2023/08/30 10:59:29;;;;;;;2.30;1.38;;;;;;;;;;5053731;28;20078;-81
2023/08/30 11:01:58;;;;;;;2.90;1.60;;;;;;;;;;5045867;28;20051;-80
2023/08/30 11:04:24;;;;;;;2.72;1.73;;;21.60;99.90;;;;;;5049492;28;20040;-80
2023/08/30 11:06:51;;;;;;;3.15;2.10;;;21.60;99.90;;;;;;5048730;28;20029;-81
2023/08/30 11:09:19;;;;;;;6.10;2.20;;;21.40;99.90;;;;;;5058817;28;20036;-82
2023/08/30 11:11:45;;;;;;;2.80;1.45;;;;;;;;;;5051567;28;20393;-82
2023/08/30 11:14:12;;;;;;;5.28;2.10;;;;;;;;;;5052307;28;20124;-81
2023/08/30 11:16:38;;;;;;;4.10;1.90;;;;;;;;;;5057955;28;20025;-81
2023/08/30 11:19:04;;;;;;;3.90;2.35;;;;;;;;;;5058478;28;20028;-79
2023/08/30 11:21:48;;;;;;;2.55;1.52;;;;;;;;;;5051842;28;20045;-82
2023/08/30 11:24:15;;;;;;;3.88;1.60;;;;;;;;;;5041296;28;20087;-83
2023/08/30 11:26:41;;;;;;;4.65;2.38;;;;;;;;;;5057734;28;20043;-81
2023/08/30 11:29:08;;;;;;;2.75;1.58;;;;;;;;;;5056989;28;20037;-80
2023/08/30 11:31:34;;;;;;;3.17;1.67;;;;;;;;;;5048994;28;20060;-79
2023/08/30 11:34:01;;;;;;;3.97;2.20;;;;;;;;;;5050904;28;20041;-79
2023/08/30 11:36:31;;;;;;;4.30;2.13;;;21.60;99.90;;;;;;5045276;28;20031;-80
2023/08/30 11:38:57;;;;;;;2.75;1.83;;;;;;;;;;5048451;28;20139;-80
2023/08/30 11:41:24;;;;;;;2.10;1.42;;;21.50;99.90;;;;;;5051479;28;20033;-82
2023/08/30 11:43:51;;;;;;;3.17;1.65;;;;;;;;;;5047119;28;20662;-82
2023/08/30 11:46:20;;;;;;;3.75;1.70;;;;;;;;;;5054962;28;20037;-81
2023/08/30 11:48:47;;;;;;;1.83;1.08;;;21.80;99.90;;;;;;5055467;28;20029;-81
2023/08/30 11:51:13;;;;;;;3.58;1.45;;;;;;;;;;5050764;28;20119;-80
2023/08/30 11:53:40;;;;;;;4.85;1.40;;;;;;;;;;5044056;28;20033;-79
2023/08/30 11:56:07;;;;;;;3.13;1.95;;;22.20;99.90;;;;;;5049375;28;20029;-80
2023/08/30 11:58:33;;;;;;;3.90;2.00;;;;;;;;;;5048310;28;20033;-80
2023/08/30 12:00:59;;;;;;;2.83;1.55;;;;;;;;;;5046210;28;20040;-80
2023/08/30 12:03:29;;;;;;;2.88;1.50;;;23.60;99.90;;;;;;5048416;28;20032;-80
2023/08/30 12:05:55;;;;;;;3.28;1.73;;;;;;;;;;5051424;28;20020;-80
2023/08/30 12:08:23;;;;;;;2.05;1.20;;;;;;;;;;5051141;28;20044;-80
2023/08/30 12:10:49;;;;;;;3.42;1.10;;;;;;;;;;5050207;28;20052;-81
2023/08/30 12:13:29;;;;;;;2.80;1.27;;;22.00;99.90;;;;;;5050605;28;20120;-81
2023/08/30 12:15:56;;;;;;;2.83;1.63;;;;;;;;;;5036744;28;20024;-80
2023/08/30 12:18:29;;;;;;;3.67;1.77;;;21.70;99.90;;;;;;5048629;28;20045;-81
2023/08/30 12:20:59;;;;;;;1.55;1.00;;;23.70;99.90;;;;;;5045653;28;20024;-81
2023/08/30 12:23:27;;;;;;;2.30;1.27;;;22.50;99.90;;;;;;5047003;28;20056;-80
2023/08/30 12:26:09;;;;;;;4.05;1.30;;;22.50;99.90;;;;;;5049806;28;20036;-80
2023/08/30 12:28:36;;;;;;;4.47;1.40;;;22.00;99.90;;;;;;5056413;28;20049;-81
2023/08/30 12:31:06;;;;;;;2.33;1.20;;;;;;;;;;5048973;28;20296;-80
2023/08/30 12:33:33;;;;;;;3.15;1.30;;;;;;;;;;5044536;28;20020;-80
2023/08/30 12:35:59;;;;;;;3.08;1.30;;;;;;;;;;5052092;28;20048;-80
2023/08/30 12:38:25;;;;;;;2.15;1.00;;;;;;;;;;5045204;28;20071;-82
2023/08/30 12:40:52;;;;;;;2.45;1.33;;;;;;;;;;5049329;28;20035;-81
2023/08/30 12:43:20;;;;;;;4.97;2.00;;;;;;;;;;5048206;28;20119;-83
2023/08/30 12:45:46;;;;;;;2.42;1.27;;;;;;;;;;5051382;28;20063;-80
2023/08/30 12:48:15;;;;;;;1.98;1.13;;;22.00;99.90;;;;;;5043323;28;20036;-80
2023/08/30 12:50:41;;;;;;;6.43;1.45;;;;;;;;;;5047491;28;20026;-81
2023/08/30 12:53:07;;;;;;;3.35;1.13;;;;;;;;;;5048044;28;20032;-80
2023/08/30 12:55:36;;;;;;;1.90;0.93;;;;;;;;;;5055334;28;20033;-80
2023/08/30 12:58:02;;;;;;;2.20;0.85;;;;;;;;;;5058099;28;20029;-80
2023/08/30 13:00:28;;;;;;;2.78;0.98;;;;;;;;;;5055846;28;20100;-81
2023/08/30 13:02:54;;;;;;;1.30;0.90;;;21.50;99.90;;;;;;5054410;28;20193;-81
2023/08/30 13:05:21;;;;;;;2.72;0.77;;;20.30;99.90;;;;;;5050035;28;20025;-80
2023/08/30 13:07:47;;;;;;;2.40;1.13;;;;;;;;;;5039551;28;20036;-83
2023/08/30 13:10:13;;;;;;;2.25;1.27;;;;;;;;;;5031754;28;20032;-82
2023/08/30 13:12:40;;;;;;;1.58;0.90;;;;;;;;;;5037286;28;20083;-83
2023/08/30 13:15:07;;;;;;;1.75;0.90;;;22.20;99.90;;;;;;5043495;28;20032;-83
2023/08/30 13:17:33;;;;;;;1.75;1.00;;;;;;;;;;5041733;28;20064;-79
2023/08/30 13:20:01;;;;;;;2.83;1.20;;;;;;;;;;5044212;28;20021;-84
2023/08/30 13:22:27;;;;;;;1.48;0.93;;;;;;;;;;5043491;28;20032;-82
2023/08/30 13:24:53;;;;;;;2.30;0.85;;;;;;;;;;5041325;28;20033;-82
2023/08/30 13:27:19;;;;;;;1.02;0.65;;;;;;;;;;5042320;28;20032;-80
2023/08/30 13:29:45;;;;;;;1.65;0.80;;;;;;;;;;5040062;28;20032;-83
2023/08/30 13:32:11;;;;;;;2.95;1.05;;;;;;;;;;5044304;28;20029;-82
2023/08/30 13:34:38;;;;;;;1.23;0.50;;;;;;;;;;5030860;28;20034;-82
2023/08/30 13:37:04;;;;;;;3.38;1.08;;;;;;;;;;5031494;28;20087;-82
2023/08/30 13:39:30;;;;;;;4.28;1.13;;;;;;;;;;5051420;28;20037;-82
2023/08/30 13:41:56;;;;;;;4.75;1.10;;;;;;;;;;5049799;28;20013;-80
2023/08/30 13:44:22;;;;;;;1.08;0.57;;;;;;;;;;5058295;28;20045;-80
2023/08/30 13:46:50;;;;;;;2.15;0.95;;;;;;;;;;5052455;28;20029;-82
2023/08/30 13:49:18;;;;;;;0.95;0.70;;;;;;;;;;5051090;28;20106;-84
2023/08/30 13:51:47;;;;;;;2.78;0.88;;;;;;;;;;5050741;28;20052;-82
2023/08/30 13:54:13;;;;;;;1.52;0.90;;;;;;;;;;5034957;28;20045;-83
2023/08/30 13:56:39;;;;;;;2.60;1.10;;;;;;;;;;5053874;28;20056;-82
2023/08/30 13:59:08;;;;;;;1.52;1.00;;;;;;;;;;5049037;28;20091;-87
2023/08/30 14:01:37;;;;;;;2.15;1.13;;;;;;;;;;5049062;28;20052;-82
2023/08/30 14:04:06;;;;;;;1.98;0.73;;;;;;;;;;5047634;28;20040;-79
2023/08/30 14:06:32;;;;;;;1.55;0.82;;;;;;;;;;5045119;28;20096;-82
2023/08/30 14:08:58;;;;;;;1.95;0.70;;;;;;;;;;5046408;28;20063;-81
2023/08/30 14:11:24;;;;;;;1.30;0.93;;;;;;;;;;5046628;28;20025;-82
2023/08/30 14:13:50;;;;;;;1.98;0.80;;;;;;;;;;5048987;28;20947;-82
2023/08/30 14:16:16;;;;;;;2.28;1.05;;;;;;;;;;5053602;28;20033;-82
2023/08/30 14:18:43;;;;;;;1.05;0.63;;;22.10;99.90;;;;;;5050744;28;20051;-81